createdAt,value
2022-11-16T00:01:50.912Z,11.95
2022-11-16T00:04:17.368Z,5.20
2022-11-16T00:06:43.877Z,8.60
2022-11-16T00:09:23.725Z,11.25
2022-11-16T00:11:56.091Z,6.97
2022-11-16T00:14:27.187Z,7.25
2022-11-16T00:16:53.773Z,14.55
2022-11-16T00:19:20.243Z,14.00
2022-11-16T00:21:46.772Z,13.95
2022-11-16T00:24:14.772Z,7.15
2022-11-16T00:26:41.562Z,11.93
2022-11-16T00:29:15.005Z,6.35
2022-11-16T00:31:41.396Z,9.43
2022-11-16T00:34:07.909Z,9.60
2022-11-16T00:36:34.339Z,8.50
2022-11-16T00:39:00.705Z,11.23
2022-11-16T00:41:32.123Z,10.45
2022-11-16T00:43:58.566Z,11.93
2022-11-16T00:46:24.946Z,12.57
2022-11-16T00:48:51.297Z,13.15
2022-11-16T00:51:17.788Z,6.00
2022-11-16T00:53:44.242Z,11.32
2022-11-16T00:56:10.744Z,9.52
2022-11-16T00:58:37.426Z,19.08
2022-11-16T01:01:09.165Z,7.60
2022-11-16T01:03:36.821Z,10.43
2022-11-16T01:06:08.561Z,9.98
2022-11-16T01:08:36.997Z,12.23
2022-11-16T01:11:23.258Z,7.57
2022-11-16T01:13:49.822Z,13.18
2022-11-16T01:16:18.090Z,11.07
2022-11-16T01:18:48.973Z,8.55
2022-11-16T01:21:15.519Z,8.18
2022-11-16T01:23:44.279Z,19.08
2022-11-16T01:26:10.767Z,12.93
2022-11-16T01:28:37.274Z,12.38
2022-11-16T01:31:03.975Z,13.20
2022-11-16T01:33:30.485Z,6.85
2022-11-16T01:35:56.950Z,11.25
2022-11-16T01:38:28.415Z,8.85
2022-11-16T01:40:56.346Z,10.00
2022-11-16T01:43:27.162Z,12.05
2022-11-16T01:45:53.711Z,8.40
2022-11-16T01:48:27.771Z,14.65
2022-11-16T01:50:56.209Z,13.45
2022-11-16T01:53:24.454Z,10.93
2022-11-16T01:55:51.050Z,22.27
2022-11-16T01:58:20.946Z,10.70
2022-11-16T02:00:49.103Z,21.33
2022-11-16T02:03:20.185Z,12.07
2022-11-16T02:05:55.779Z,12.60
2022-11-16T02:08:59.584Z,11.23
2022-11-16T02:11:46.379Z,25.13
2022-11-16T02:14:24.949Z,10.15
2022-11-16T02:17:20.430Z,11.95
2022-11-16T02:20:09.722Z,8.52
2022-11-16T02:22:55.435Z,11.48
2022-11-16T02:25:53.889Z,8.18
2022-11-16T02:28:26.263Z,13.57
2022-11-16T02:30:57.929Z,8.50
2022-11-16T02:33:31.770Z,11.95
2022-11-16T02:36:01.118Z,20.92
2022-11-16T02:38:31.870Z,10.55
2022-11-16T02:41:08.117Z,10.93
2022-11-16T02:43:41.367Z,16.63
2022-11-16T02:46:15.355Z,10.25
2022-11-16T02:48:47.826Z,12.10
2022-11-16T02:51:15.199Z,9.82
2022-11-16T02:53:57.738Z,11.25
2022-11-16T02:56:27.130Z,13.55
2022-11-16T02:58:53.695Z,9.02
2022-11-16T03:01:29.516Z,15.65
2022-11-16T03:04:05.899Z,13.73
2022-11-16T03:06:39.551Z,10.13
2022-11-16T03:09:16.158Z,11.93
2022-11-16T03:11:59.666Z,11.02
2022-11-16T03:14:42.025Z,13.68
2022-11-16T03:17:15.847Z,12.10
2022-11-16T03:19:50.900Z,21.10
2022-11-16T03:22:26.305Z,10.48
2022-11-16T03:24:53.258Z,7.82
2022-11-16T03:27:44.981Z,17.80
2022-11-16T03:30:22.327Z,14.70
2022-11-16T03:33:01.742Z,11.23
2022-11-16T03:35:34.112Z,7.95
2022-11-16T03:38:06.613Z,12.27
2022-11-16T03:40:37.566Z,13.88
2022-11-16T03:43:08.409Z,9.90
2022-11-16T03:45:38.722Z,10.57
2022-11-16T03:48:07.267Z,13.70
2022-11-16T03:50:33.763Z,16.77
2022-11-16T03:53:00.158Z,12.73
2022-11-16T03:55:26.536Z,11.98
2022-11-16T03:57:55.651Z,15.52
2022-11-16T04:00:24.203Z,15.18
2022-11-16T04:02:50.613Z,12.30
2022-11-16T04:05:35.604Z,16.67
2022-11-16T04:08:20.711Z,17.05
2022-11-16T04:11:05.782Z,19.15
2022-11-16T04:13:52.845Z,25.27
2022-11-16T04:16:40.830Z,15.27
2022-11-16T04:19:27.907Z,12.73
2022-11-16T04:22:19.403Z,12.82
2022-11-16T04:24:51.753Z,15.23
2022-11-16T04:30:14.857Z,17.38
2022-11-16T04:33:00.008Z,15.90
2022-11-16T04:35:45.072Z,19.73
2022-11-16T04:38:11.605Z,12.88
2022-11-16T04:40:38.072Z,17.30
2022-11-16T04:43:05.085Z,16.33
2022-11-16T04:45:50.766Z,17.13
2022-11-16T04:48:18.831Z,19.35
2022-11-16T04:50:46.149Z,20.42
2022-11-16T04:53:12.861Z,21.85
2022-11-16T04:55:39.377Z,19.40
2022-11-16T04:58:06.133Z,27.17
2022-11-16T05:00:32.857Z,20.42
2022-11-16T05:03:01.630Z,22.95
2022-11-16T05:05:30.791Z,20.35
2022-11-16T05:07:57.195Z,22.65
2022-11-16T05:10:23.528Z,22.35
2022-11-16T05:12:49.881Z,20.85
2022-11-16T05:15:19.718Z,21.73
2022-11-16T05:17:46.904Z,25.50
2022-11-16T05:20:32.093Z,18.30
2022-11-16T05:22:58.742Z,22.02
2022-11-16T05:25:25.801Z,25.75
2022-11-16T05:27:52.249Z,18.15
2022-11-16T05:30:18.900Z,18.77
2022-11-16T05:32:45.368Z,21.00
2022-11-16T05:35:11.928Z,18.25
2022-11-16T05:37:38.331Z,19.20
2022-11-16T05:40:05.371Z,20.98
2022-11-16T05:42:31.890Z,18.38
2022-11-16T05:45:00.806Z,17.83
2022-11-16T05:47:27.222Z,16.25
2022-11-16T05:49:53.662Z,19.00
2022-11-16T05:52:20.089Z,19.98
2022-11-16T05:54:48.778Z,17.55
2022-11-16T05:57:18.098Z,23.92
2022-11-16T05:59:44.602Z,21.63
2022-11-16T06:02:11.113Z,19.88
2022-11-16T06:04:40.035Z,26.00
2022-11-16T06:07:06.450Z,21.13
2022-11-16T06:09:32.894Z,21.52
2022-11-16T06:12:01.561Z,25.67
2022-11-16T06:14:27.959Z,21.85
2022-11-16T06:16:54.350Z,26.30
2022-11-16T06:19:20.962Z,20.95
2022-11-16T06:21:47.365Z,22.75
2022-11-16T06:24:13.863Z,21.40
2022-11-16T06:26:40.416Z,21.60
2022-11-16T06:29:08.914Z,23.48
2022-11-16T06:31:35.287Z,28.00
2022-11-16T06:34:01.706Z,25.85
2022-11-16T06:36:28.260Z,19.58
2022-11-16T06:38:57.694Z,17.15
2022-11-16T06:41:24.113Z,22.25
2022-11-16T06:43:53.345Z,22.30
2022-11-16T06:46:19.782Z,19.45
2022-11-16T06:48:46.209Z,20.63
2022-11-16T06:51:15.091Z,20.15
2022-11-16T06:53:41.513Z,18.92
2022-11-16T06:56:10.235Z,25.27
2022-11-16T06:58:37.093Z,25.42
2022-11-16T07:01:11.289Z,30.55
2022-11-16T07:03:38.277Z,20.02
2022-11-16T07:06:09.527Z,21.02
2022-11-16T07:08:36.569Z,19.93
2022-11-16T07:11:04.995Z,27.40
2022-11-16T07:13:37.718Z,21.05
2022-11-16T07:16:09.619Z,20.35
2022-11-16T07:18:37.975Z,27.90
2022-11-16T07:21:13.492Z,19.95
2022-11-16T07:23:40.710Z,18.35
2022-11-16T07:26:08.934Z,18.20
2022-11-16T07:28:35.935Z,17.98
2022-11-16T07:31:07.810Z,18.17
2022-11-16T07:33:34.938Z,16.08
2022-11-16T07:36:09.878Z,16.75
2022-11-16T07:38:36.674Z,22.40
2022-11-16T07:41:13.884Z,25.50
2022-11-16T07:43:40.362Z,23.08
2022-11-16T07:48:57.794Z,23.23
2022-11-16T07:51:24.226Z,23.25
2022-11-16T07:53:53.876Z,25.48
2022-11-16T07:56:22.444Z,19.85
2022-11-16T07:58:48.786Z,18.58
2022-11-16T08:01:17.532Z,23.30
2022-11-16T08:03:45.938Z,20.85
2022-11-16T08:06:20.380Z,13.70
2022-11-16T08:08:46.851Z,15.95
2022-11-16T08:11:13.636Z,17.42
2022-11-16T08:13:45.651Z,17.58
2022-11-16T08:16:18.053Z,18.05
2022-11-16T08:18:45.125Z,15.50
2022-11-16T08:21:14.596Z,13.85
2022-11-16T08:23:52.668Z,18.00
2022-11-16T08:26:23.269Z,14.13
2022-11-16T08:28:51.252Z,18.58
2022-11-16T08:31:24.103Z,15.88
2022-11-16T08:33:51.839Z,15.65
2022-11-16T08:36:19.180Z,16.65
2022-11-16T08:38:49.972Z,17.52
2022-11-16T08:41:17.523Z,7.55
2022-11-16T08:43:47.190Z,8.13
2022-11-16T08:46:14.632Z,10.77
2022-11-16T08:48:41.063Z,11.30
2022-11-16T08:51:18.530Z,11.02
2022-11-16T08:53:48.231Z,9.50
2022-11-16T08:56:16.499Z,14.57
2022-11-16T08:58:53.829Z,10.43
2022-11-16T09:01:27.907Z,8.70
2022-11-16T09:03:54.709Z,17.58
2022-11-16T09:06:22.234Z,5.72
2022-11-16T09:08:49.104Z,14.63
2022-11-16T09:11:19.165Z,5.20
2022-11-16T09:13:47.012Z,15.73
2022-11-16T09:16:17.379Z,10.77
2022-11-16T09:18:46.565Z,13.70
2022-11-16T09:21:18.253Z,15.00
2022-11-16T09:23:45.183Z,12.40
2022-11-16T09:26:11.699Z,11.85
2022-11-16T09:28:38.532Z,6.38
2022-11-16T09:31:06.063Z,9.00
2022-11-16T09:33:34.181Z,8.45
2022-11-16T09:36:02.745Z,10.00
2022-11-16T09:38:47.466Z,8.65
2022-11-16T09:41:26.583Z,4.32
2022-11-16T09:44:18.121Z,19.27
2022-11-16T09:46:48.395Z,9.37
2022-11-16T09:49:31.260Z,6.68
2022-11-16T09:52:02.657Z,6.28
2022-11-16T09:54:34.165Z,4.57
2022-11-16T09:57:11.073Z,8.68
2022-11-16T09:59:46.730Z,2.80
2022-11-16T10:02:40.136Z,6.07
2022-11-16T10:05:20.489Z,9.18
2022-11-16T10:07:52.240Z,7.50
2022-11-16T10:10:36.442Z,10.75
2022-11-16T10:13:19.751Z,4.15
2022-11-16T10:16:07.751Z,9.82
2022-11-16T10:18:47.136Z,4.90
2022-11-16T10:21:28.119Z,5.00
2022-11-16T10:24:26.307Z,3.13
2022-11-16T10:27:22.329Z,3.38
2022-11-16T10:30:07.722Z,9.80
2022-11-16T10:32:59.199Z,2.92
2022-11-16T10:35:31.939Z,6.05
2022-11-16T10:38:02.543Z,13.00
2022-11-16T10:40:39.794Z,6.72
2022-11-16T10:43:23.673Z,9.55
2022-11-16T10:46:15.623Z,1.27
2022-11-16T10:49:00.474Z,7.22
2022-11-16T10:51:29.173Z,4.75
2022-11-16T10:53:55.968Z,3.40
2022-11-16T10:56:31.825Z,7.95
2022-11-16T10:59:00.886Z,4.65
2022-11-16T11:01:53.371Z,3.70
2022-11-16T11:04:31.586Z,10.45
2022-11-16T11:07:21.704Z,8.75
2022-11-16T11:09:55.280Z,6.53
2022-11-16T11:12:38.932Z,13.68
2022-11-16T11:15:11.224Z,6.72
2022-11-16T11:17:43.082Z,14.30
2022-11-16T11:20:15.288Z,7.97
2022-11-16T11:22:42.920Z,3.10
2022-11-16T11:25:22.506Z,5.75
2022-11-16T11:27:50.464Z,8.70
2022-11-16T11:30:21.657Z,4.60
2022-11-16T11:32:48.878Z,7.73
2022-11-16T11:35:31.217Z,3.45
2022-11-16T11:40:36.848Z,10.85
2022-11-16T11:43:05.643Z,10.93
2022-11-16T11:45:38.948Z,7.82
2022-11-16T11:48:16.451Z,10.32
2022-11-16T11:51:12.141Z,21.75
2022-11-16T11:53:54.962Z,2.33
2022-11-16T11:56:22.293Z,3.35
2022-11-16T11:58:54.208Z,5.28
2022-11-16T12:01:25.561Z,7.90
2022-11-16T12:03:54.900Z,9.55
2022-11-16T12:06:57.126Z,4.50
2022-11-16T12:09:57.570Z,5.90
2022-11-16T12:12:30.018Z,10.70
2022-11-16T12:15:25.795Z,3.78
2022-11-16T12:18:24.229Z,11.13
2022-11-16T12:21:00.865Z,3.20
2022-11-16T12:23:41.278Z,6.85
2022-11-16T12:26:19.929Z,2.70
2022-11-16T12:29:03.961Z,7.05
2022-11-16T12:31:53.316Z,12.68
2022-11-16T12:34:37.491Z,5.13
2022-11-16T12:37:13.333Z,1.98
2022-11-16T12:40:13.903Z,10.75
2022-11-16T12:43:04.573Z,4.13
2022-11-16T12:45:33.691Z,3.97
2022-11-16T12:48:08.639Z,5.50
2022-11-16T12:51:04.682Z,8.48
2022-11-16T12:53:56.624Z,11.50
2022-11-16T12:56:45.916Z,8.55
2022-11-16T12:59:26.961Z,1.67
2022-11-16T13:02:00.756Z,2.90
2022-11-16T13:04:34.216Z,5.68
2022-11-16T13:07:10.938Z,4.22
2022-11-16T13:09:45.948Z,2.67
2022-11-16T13:12:18.518Z,5.53
2022-11-16T13:14:51.040Z,8.30
2022-11-16T13:17:24.122Z,11.35
2022-11-16T13:20:24.305Z,8.68
2022-11-16T13:23:15.711Z,3.53
2022-11-16T13:25:45.031Z,5.80
2022-11-16T13:28:33.929Z,5.07
2022-11-16T13:31:08.780Z,2.90
2022-11-16T13:33:53.716Z,4.93
2022-11-16T13:36:32.435Z,10.23
2022-11-16T13:38:58.853Z,5.78
2022-11-16T13:41:33.249Z,1.45
2022-11-16T13:44:03.362Z,3.17
2022-11-16T13:47:02.017Z,4.28
2022-11-16T13:49:36.652Z,5.53
2022-11-16T13:52:22.539Z,9.80
2022-11-16T13:54:56.809Z,2.80
2022-11-16T13:57:25.657Z,5.30
2022-11-16T14:00:20.663Z,6.75
2022-11-16T14:02:49.372Z,11.48
2022-11-16T14:05:39.912Z,9.98
2022-11-16T14:08:26.825Z,6.47
2022-11-16T14:10:53.208Z,3.35
2022-11-16T14:13:36.093Z,4.88
2022-11-16T14:16:14.954Z,2.78
2022-11-16T14:18:47.446Z,12.35
2022-11-16T14:21:20.122Z,5.35
2022-11-16T14:24:03.018Z,11.40
2022-11-16T14:26:55.586Z,10.27
2022-11-16T14:32:04.587Z,5.47
2022-11-16T14:34:32.728Z,8.63
2022-11-16T14:37:00.342Z,14.32
2022-11-16T14:39:37.455Z,8.43
2022-11-16T14:42:16.247Z,5.82
2022-11-16T14:44:45.910Z,8.32
2022-11-16T14:47:30.496Z,2.15
2022-11-16T14:49:57.466Z,5.25
2022-11-16T14:52:40.143Z,6.45
2022-11-16T14:55:08.997Z,4.35
2022-11-16T14:57:35.569Z,12.20
2022-11-16T15:00:11.708Z,6.57
2022-11-16T15:02:40.917Z,10.10
2022-11-16T15:05:07.702Z,6.68
2022-11-16T15:07:34.324Z,4.70
2022-11-16T15:10:01.002Z,9.15
2022-11-16T15:12:41.588Z,6.97
2022-11-16T15:15:11.001Z,4.57
2022-11-16T15:17:41.692Z,9.43
2022-11-16T15:20:21.486Z,5.20
2022-11-16T15:22:53.024Z,6.03
2022-11-16T15:25:35.405Z,4.03
2022-11-16T15:30:34.090Z,5.93
2022-11-16T15:33:09.591Z,6.40
2022-11-16T15:35:37.663Z,6.18
2022-11-16T15:38:24.235Z,10.85
2022-11-16T15:41:04.628Z,5.88
2022-11-16T15:44:12.439Z,12.23
2022-11-16T15:46:37.813Z,12.57
2022-11-16T15:49:07.819Z,13.13
2022-11-16T15:51:34.249Z,18.50
2022-11-16T15:54:28.256Z,14.45
2022-11-16T15:57:08.070Z,14.20
2022-11-16T15:59:39.394Z,14.90
2022-11-16T16:02:15.108Z,12.83
2022-11-16T16:04:44.858Z,13.43
2022-11-16T16:07:14.228Z,10.32
2022-11-16T16:09:41.038Z,21.90
2022-11-16T16:12:24.380Z,24.65
2022-11-16T16:14:52.182Z,34.30
2022-11-16T16:17:28.049Z,19.23
2022-11-16T16:19:57.660Z,14.48
2022-11-16T16:22:26.039Z,15.98
2022-11-16T16:24:52.599Z,7.80
2022-11-16T16:27:28.654Z,7.72
2022-11-16T16:30:03.575Z,12.50
2022-11-16T16:32:37.025Z,5.78
2022-11-16T16:35:08.656Z,10.70
2022-11-16T16:37:40.126Z,8.55
2022-11-16T16:40:07.317Z,6.10
2022-11-16T16:42:35.902Z,9.80
2022-11-16T16:45:02.517Z,8.77
2022-11-16T16:47:28.908Z,4.00
2022-11-16T16:49:55.745Z,8.80
2022-11-16T16:52:22.788Z,17.50
2022-11-16T16:54:49.244Z,8.18
2022-11-16T16:57:18.276Z,8.63
2022-11-16T16:59:45.858Z,14.48
2022-11-16T17:02:12.944Z,17.83
2022-11-16T17:04:39.691Z,13.65
2022-11-16T17:07:08.485Z,9.85
2022-11-16T17:09:34.937Z,7.30
2022-11-16T17:12:01.667Z,7.78
2022-11-16T17:14:28.084Z,8.63
2022-11-16T17:16:57.595Z,3.70
2022-11-16T17:19:24.171Z,4.00
2022-11-16T17:21:53.415Z,9.90
2022-11-16T17:24:20.042Z,5.85
2022-11-16T17:26:49.339Z,5.85
2022-11-16T17:29:15.777Z,3.72
2022-11-16T17:31:44.082Z,10.82
2022-11-16T17:34:13.805Z,10.45
2022-11-16T17:36:40.918Z,4.18
2022-11-16T17:39:07.313Z,7.45
2022-11-16T17:41:33.848Z,5.75
2022-11-16T17:44:02.643Z,7.25
2022-11-16T17:46:29.168Z,8.30
2022-11-16T17:48:56.345Z,6.05
2022-11-16T17:51:25.044Z,7.85
2022-11-16T17:53:51.962Z,5.25
2022-11-16T17:56:22.351Z,6.38
2022-11-16T17:58:50.235Z,7.10
2022-11-16T18:01:19.164Z,6.60
2022-11-16T18:03:45.738Z,5.38
2022-11-16T18:06:14.908Z,3.75
2022-11-16T18:08:46.628Z,4.85
2022-11-16T18:11:24.377Z,1.88
2022-11-16T18:13:59.061Z,7.82
2022-11-16T18:16:30.863Z,9.60
2022-11-16T18:19:01.788Z,13.30
2022-11-16T18:21:28.451Z,9.32
2022-11-16T18:23:55.759Z,4.68
2022-11-16T18:26:23.503Z,4.43
2022-11-16T18:28:51.602Z,5.22
2022-11-16T18:31:21.306Z,3.45
2022-11-16T18:33:49.201Z,5.25
2022-11-16T18:36:17.298Z,4.78
2022-11-16T18:38:43.757Z,4.25
2022-11-16T18:41:13.155Z,5.25
2022-11-16T18:43:50.735Z,8.70
2022-11-16T18:46:18.898Z,11.75
2022-11-16T18:48:47.863Z,3.85
2022-11-16T18:51:15.767Z,5.65
2022-11-16T18:53:42.290Z,7.82
2022-11-16T18:56:09.542Z,7.35
2022-11-16T18:58:49.741Z,7.38
2022-11-16T19:01:18.855Z,6.20
2022-11-16T19:03:45.326Z,7.40
2022-11-16T19:06:12.247Z,4.78
2022-11-16T19:08:40.317Z,4.82
2022-11-16T19:11:12.868Z,9.13
2022-11-16T19:13:43.804Z,6.25
2022-11-16T19:16:12.934Z,27.10
2022-11-16T19:18:39.516Z,18.45
2022-11-16T19:21:11.234Z,9.73
2022-11-16T19:23:38.558Z,9.88
2022-11-16T19:26:06.235Z,12.75
2022-11-16T19:28:51.848Z,11.30
2022-11-16T19:31:21.443Z,10.02
2022-11-16T19:33:48.248Z,6.60
2022-11-16T19:36:17.609Z,7.35
2022-11-16T19:38:48.081Z,8.68
2022-11-16T19:41:16.221Z,5.57
2022-11-16T19:43:42.910Z,10.45
2022-11-16T19:46:11.424Z,8.60
2022-11-16T19:48:38.989Z,6.70
2022-11-16T19:51:10.638Z,3.65
2022-11-16T19:53:38.747Z,6.28
2022-11-16T19:56:06.806Z,5.90
2022-11-16T19:58:38.238Z,11.07
2022-11-16T20:01:07.685Z,7.25
2022-11-16T20:03:34.814Z,7.78
2022-11-16T20:06:11.994Z,9.75
2022-11-16T20:08:40.047Z,6.93
2022-11-16T20:11:14.411Z,7.00
2022-11-16T20:13:46.095Z,11.20
2022-11-16T20:16:14.741Z,3.00
2022-11-16T20:18:43.007Z,9.60
2022-11-16T20:21:16.419Z,4.63
2022-11-16T20:23:44.604Z,12.10
2022-11-16T20:26:13.524Z,6.68
2022-11-16T20:28:42.721Z,3.20
2022-11-16T20:31:12.560Z,13.45
2022-11-16T20:33:39.105Z,6.00
2022-11-16T20:36:10.644Z,10.88
2022-11-16T20:38:40.439Z,3.72
2022-11-16T20:41:08.362Z,8.48
2022-11-16T20:43:35.390Z,2.50
2022-11-16T20:46:01.956Z,4.75
2022-11-16T20:48:30.781Z,16.92
2022-11-16T20:50:57.232Z,5.88
2022-11-16T20:53:23.686Z,5.18
2022-11-16T20:55:50.097Z,4.75
2022-11-16T20:58:22.387Z,7.60
2022-11-16T21:00:50.237Z,9.55
2022-11-16T21:03:16.918Z,6.93
2022-11-16T21:05:49.927Z,3.95
2022-11-16T21:08:16.756Z,7.18
2022-11-16T21:10:45.337Z,3.47
2022-11-16T21:13:34.554Z,5.30
2022-11-16T21:16:06.874Z,5.28
2022-11-16T21:18:34.148Z,4.55
2022-11-16T21:21:06.264Z,6.72
2022-11-16T21:23:34.696Z,4.13
2022-11-16T21:26:03.173Z,3.20
2022-11-16T21:28:30.065Z,4.82
2022-11-16T21:31:01.708Z,4.38
2022-11-16T21:33:31.148Z,2.95
2022-11-16T21:36:03.922Z,6.18
2022-11-16T21:38:31.540Z,6.40
2022-11-16T21:40:57.950Z,4.88
2022-11-16T21:43:24.405Z,2.25
2022-11-16T21:45:51.136Z,13.02
2022-11-16T21:48:17.527Z,12.60
2022-11-16T21:50:44.469Z,8.02
2022-11-16T21:53:10.905Z,8.30
2022-11-16T21:55:37.294Z,2.95
2022-11-16T21:58:03.707Z,2.58
2022-11-16T22:00:30.390Z,3.28
2022-11-16T22:02:56.793Z,7.55
2022-11-16T22:05:41.662Z,6.53
2022-11-16T22:08:09.645Z,9.15
2022-11-16T22:10:36.035Z,4.03
2022-11-16T22:13:05.399Z,9.85
2022-11-16T22:15:31.780Z,7.70
2022-11-16T22:18:02.497Z,5.45
2022-11-16T22:20:28.912Z,7.07
2022-11-16T22:22:57.592Z,7.22
2022-11-16T22:25:26.561Z,3.53
2022-11-16T22:28:19.074Z,2.33
2022-11-16T22:30:39.547Z,4.88
2022-11-16T22:33:06.048Z,3.83
2022-11-16T22:35:32.453Z,5.32
2022-11-16T22:38:01.169Z,4.18
2022-11-16T22:40:27.648Z,3.20
2022-11-16T22:42:59.522Z,5.72
2022-11-16T22:45:26.339Z,7.47
2022-11-16T22:47:54.931Z,10.93
2022-11-16T22:50:23.941Z,7.30
2022-11-16T22:52:50.364Z,6.25
2022-11-16T22:55:16.912Z,2.63
2022-11-16T22:57:43.328Z,5.75
2022-11-16T23:00:10.442Z,3.30
2022-11-16T23:02:36.875Z,3.70
2022-11-16T23:05:03.461Z,7.18
2022-11-16T23:07:34.688Z,2.83
2022-11-16T23:10:01.238Z,5.77
2022-11-16T23:12:46.476Z,2.50
2022-11-16T23:15:31.724Z,5.72
2022-11-16T23:18:00.363Z,5.72
2022-11-16T23:20:45.272Z,4.60
2022-11-16T23:23:37.675Z,11.10
2022-11-16T23:26:30.152Z,6.47
2022-11-16T23:29:00.744Z,5.88
2022-11-16T23:31:29.491Z,5.57
2022-11-16T23:33:55.906Z,4.18
2022-11-16T23:36:24.506Z,2.83
2022-11-16T23:38:50.912Z,3.13
2022-11-16T23:41:35.709Z,6.07
2022-11-16T23:44:02.188Z,7.97
2022-11-16T23:46:30.879Z,3.35
2022-11-16T23:48:57.841Z,17.75
2022-11-16T23:51:24.657Z,7.22
2022-11-16T23:53:52.116Z,5.88
2022-11-16T23:56:19.970Z,3.83
2022-11-16T23:58:46.940Z,2.88
